首页
METAR-TAF:

METAR-TAF

机场 :

Chadron, 內布拉斯加州, 美国

纬度: 42-50-15N, 经度: 103-05-43W, 海拔: 1005米

当前天气观测

该预报发布于28分钟前的09:53 UTC
风速3节,风向东北
温度 4°C
湿度 93%
气压 1025 hPa
能見度: 16.1公里
天空无云

METAR: KCDR 190953Z AUTO 04003KT 10SM CLR 04/03 A3026 RMK AO2 SLP247 T00440033 $

时间: 04:21 (10:21 UTC)

预报

该预报发布于5小时和1分钟前的05:20 UTC
预报有效从19日的 06点(UTC)到 20日的 06点(UTC)
风速5节,风向北转东北
能見度: 10公里
散云层高于10000英尺
从 19日的 1500点(UTC)
风速10节,风向东转东南
能見度: 10公里
散云层高于10000英尺
从 19日的 1900点(UTC)
风速15节,风向东南,有时为25节阵风
能見度: 10公里
散云层高于10000英尺
从 20日的 0000点(UTC)
风速10节,风向东转东南
能見度: 4.8公里
阴天层高于1500英尺
小雨, 轻雾,

TAF: KCDR 190520Z 1906/2006 03005KT P6SM SCT100 FM191500 12010KT P6SM SCT100 FM191900 13015G25KT P6SM SCT100 FM200000 12010KT 3SM -RA BR OVC015

超过4000个机场的气象观测和天气预报(METAR&TAF报告)。

可查询的气象台以黄色和红色小点在地图上表示。

将鼠标移到小点上方,可查看气象台名称。

然后点击查看天气观测和预报。

如需切换地图:点击带黑十字的绿色按钮放大地图;点击带横线的绿色按钮缩小地图;或者点击绿色箭头查看邻近地区的地图。


METAR-TAF: